createdAt,value
2022-10-30T00:01:51.640Z,71.67
2022-10-30T00:04:19.769Z,71.97
2022-10-30T00:06:49.968Z,70.50
2022-10-30T00:09:18.053Z,70.47
2022-10-30T00:11:46.043Z,69.67
2022-10-30T00:14:14.054Z,70.50
2022-10-30T00:16:42.033Z,71.43
2022-10-30T00:19:10.026Z,71.87
2022-10-30T00:21:38.067Z,70.07
2022-10-30T00:24:08.831Z,69.23
2022-10-30T00:26:36.943Z,68.07
2022-10-30T00:29:04.926Z,70.13
2022-10-30T00:31:32.933Z,69.83
2022-10-30T00:34:02.206Z,66.93
2022-10-30T00:36:30.168Z,68.10
2022-10-30T00:38:58.189Z,67.07
2022-10-30T00:41:27.583Z,67.83
2022-10-30T00:43:56.593Z,67.77
2022-10-30T00:46:29.194Z,67.90
2022-10-30T00:49:00.636Z,68.20
2022-10-30T00:51:30.071Z,67.00
2022-10-30T00:54:01.860Z,66.63
2022-10-30T00:56:32.219Z,67.60
2022-10-30T00:59:02.940Z,64.90
2022-10-30T01:01:35.041Z,64.60
2022-10-30T01:04:04.628Z,64.20
2022-10-30T01:06:34.990Z,62.30
2022-10-30T01:09:04.655Z,61.87
2022-10-30T01:11:34.202Z,60.70
2022-10-30T01:14:07.119Z,60.43
2022-10-30T01:17:01.976Z,58.33
2022-10-30T01:19:39.148Z,57.83
2022-10-30T01:22:31.606Z,58.57
2022-10-30T01:25:10.667Z,58.87
2022-10-30T01:27:50.907Z,56.87
2022-10-30T01:30:29.144Z,55.17
2022-10-30T01:33:12.904Z,54.40
2022-10-30T01:35:47.093Z,56.33
2022-10-30T01:38:20.646Z,53.83
2022-10-30T01:40:52.180Z,54.00
2022-10-30T01:43:21.638Z,54.40
2022-10-30T01:46:13.962Z,55.03
2022-10-30T01:48:57.315Z,54.63
2022-10-30T01:51:41.526Z,56.97
2022-10-30T01:54:22.074Z,57.10
2022-10-30T01:57:00.938Z,56.20
2022-10-30T01:59:35.699Z,57.33
2022-10-30T02:02:03.889Z,59.10
2022-10-30T02:04:33.096Z,57.97
2022-10-30T02:07:01.179Z,59.10
2022-10-30T02:09:29.378Z,59.27
2022-10-30T02:11:57.718Z,59.37
2022-10-30T02:14:30.192Z,60.67
2022-10-30T02:17:03.277Z,60.33
2022-10-30T02:19:31.350Z,60.43
2022-10-30T02:22:00.885Z,61.13
2022-10-30T02:24:30.219Z,63.57
2022-10-30T02:26:58.383Z,64.73
2022-10-30T02:29:26.410Z,64.23
2022-10-30T02:31:54.398Z,64.17
2022-10-30T02:34:22.561Z,63.93
2022-10-30T02:36:50.537Z,66.77
2022-10-30T02:39:21.380Z,67.93
2022-10-30T02:41:49.935Z,70.40
2022-10-30T02:44:17.937Z,69.10
2022-10-30T02:46:47.985Z,71.17
2022-10-30T02:49:16.132Z,72.57
2022-10-30T02:51:44.186Z,74.97
2022-10-30T02:54:14.012Z,74.80
2022-10-30T02:56:43.783Z,77.63
2022-10-30T02:59:11.990Z,76.93
2022-10-30T03:01:40.208Z,78.17
2022-10-30T03:04:08.449Z,78.77
2022-10-30T03:06:36.443Z,80.50
2022-10-30T03:09:04.542Z,78.50
2022-10-30T03:11:34.766Z,79.50
2022-10-30T03:14:04.175Z,79.27
2022-10-30T03:16:33.654Z,77.30
2022-10-30T03:19:01.701Z,79.23
2022-10-30T03:21:30.593Z,78.50
2022-10-30T03:23:58.692Z,81.80
2022-10-30T03:26:27.248Z,77.53
2022-10-30T03:29:00.416Z,80.50
2022-10-30T03:31:32.758Z,82.27
2022-10-30T03:34:17.464Z,82.23
2022-10-30T03:36:45.469Z,83.50
2022-10-30T03:39:14.256Z,83.93
2022-10-30T03:41:44.700Z,85.13
2022-10-30T03:44:13.618Z,83.20
2022-10-30T03:46:43.045Z,83.17
2022-10-30T03:49:40.398Z,86.60
2022-10-30T03:52:12.296Z,84.90
2022-10-30T03:54:40.261Z,85.37
2022-10-30T03:57:09.608Z,86.73
2022-10-30T03:59:45.664Z,84.83
2022-10-30T04:02:40.885Z,87.03
2022-10-30T04:05:10.155Z,86.03
2022-10-30T04:07:38.115Z,85.33
2022-10-30T04:10:06.947Z,83.97
2022-10-30T04:12:35.526Z,84.57
2022-10-30T04:15:03.689Z,83.77
2022-10-30T04:17:31.612Z,83.73
2022-10-30T04:20:03.853Z,83.90
2022-10-30T04:22:33.216Z,83.87
2022-10-30T04:25:01.259Z,86.07
2022-10-30T04:27:31.921Z,87.20
2022-10-30T04:29:59.945Z,86.60
2022-10-30T04:32:28.439Z,87.83
2022-10-30T04:34:56.607Z,89.57
2022-10-30T04:37:27.277Z,90.00
2022-10-30T04:39:55.271Z,90.03
2022-10-30T04:42:27.283Z,92.53
2022-10-30T04:44:55.288Z,94.37
2022-10-30T04:47:23.284Z,94.67
2022-10-30T04:49:51.262Z,96.77
2022-10-30T04:52:19.317Z,94.77
2022-10-30T04:54:48.711Z,94.43
2022-10-30T04:57:16.981Z,92.63
2022-10-30T04:59:45.177Z,93.00
2022-10-30T05:02:13.387Z,92.23
2022-10-30T05:04:41.651Z,91.10
2022-10-30T05:07:09.597Z,93.73
2022-10-30T05:09:37.605Z,92.63
2022-10-30T05:12:07.509Z,93.00
2022-10-30T05:14:43.236Z,93.80
2022-10-30T05:17:11.379Z,93.57
2022-10-30T05:19:39.330Z,93.23
2022-10-30T05:22:07.575Z,93.80
2022-10-30T05:24:36.710Z,97.23
2022-10-30T05:27:06.204Z,94.83
2022-10-30T05:29:34.899Z,96.13
2022-10-30T05:32:02.910Z,97.20
2022-10-30T05:34:42.528Z,98.13
2022-10-30T05:37:11.876Z,96.10
2022-10-30T05:39:39.856Z,96.77
2022-10-30T05:42:16.614Z,97.37
2022-10-30T05:45:05.112Z,97.20
2022-10-30T05:47:36.518Z,96.80
2022-10-30T05:50:05.027Z,95.53
2022-10-30T05:52:33.029Z,93.57
2022-10-30T05:55:01.585Z,95.17
2022-10-30T05:58:01.239Z,96.77
2022-10-30T06:00:31.797Z,95.90
2022-10-30T06:03:04.043Z,95.90
2022-10-30T06:05:35.031Z,95.67
2022-10-30T06:08:03.254Z,97.03
2022-10-30T06:10:31.563Z,96.27
2022-10-30T06:13:08.610Z,96.60
2022-10-30T06:15:43.851Z,99.60
2022-10-30T06:18:12.001Z,97.10
2022-10-30T06:20:45.399Z,96.70
2022-10-30T06:23:31.774Z,98.47
2022-10-30T06:26:05.254Z,96.43
2022-10-30T06:28:52.380Z,97.70
2022-10-30T06:33:49.204Z,95.37
2022-10-30T06:36:17.596Z,96.10
2022-10-30T06:38:45.991Z,94.67
2022-10-30T06:41:17.478Z,96.07
2022-10-30T06:44:01.284Z,95.00
2022-10-30T06:46:33.757Z,94.63
2022-10-30T06:49:02.482Z,93.20
2022-10-30T06:51:33.058Z,92.93
2022-10-30T06:54:01.716Z,92.20
2022-10-30T06:56:52.756Z,92.23
2022-10-30T06:59:44.932Z,91.33
2022-10-30T07:02:31.652Z,90.03
2022-10-30T07:05:04.872Z,89.70
2022-10-30T07:07:33.153Z,86.23
2022-10-30T07:10:01.822Z,85.43
2022-10-30T07:12:54.608Z,86.03
2022-10-30T07:15:39.891Z,82.20
2022-10-30T07:18:23.568Z,80.57
2022-10-30T07:20:56.268Z,80.07
2022-10-30T07:23:25.208Z,77.33
2022-10-30T07:26:02.479Z,74.07
2022-10-30T07:28:36.801Z,72.07
2022-10-30T07:31:24.245Z,71.00
2022-10-30T07:34:32.646Z,69.17
2022-10-30T07:37:24.730Z,67.23
2022-10-30T07:40:22.035Z,66.27
2022-10-30T07:43:01.116Z,64.93
2022-10-30T07:46:01.551Z,65.23
2022-10-30T07:48:57.503Z,63.70
2022-10-30T07:51:30.521Z,63.37
2022-10-30T07:53:59.056Z,60.97
2022-10-30T07:56:27.120Z,58.47
2022-10-30T07:58:55.250Z,56.57
2022-10-30T08:01:32.176Z,56.37
2022-10-30T08:04:14.124Z,55.00
2022-10-30T08:06:42.210Z,54.83
2022-10-30T08:09:10.511Z,52.27
2022-10-30T08:11:38.518Z,51.83
2022-10-30T08:14:06.852Z,50.83
2022-10-30T08:16:34.820Z,50.43
2022-10-30T08:19:04.399Z,49.67
2022-10-30T08:21:34.346Z,49.07
2022-10-30T08:24:12.319Z,47.60
2022-10-30T08:26:43.110Z,47.60
2022-10-30T08:29:12.554Z,47.50
2022-10-30T08:31:41.186Z,45.87
2022-10-30T08:34:26.687Z,44.50
2022-10-30T08:36:57.661Z,42.67
2022-10-30T08:39:25.934Z,40.57
2022-10-30T08:42:32.186Z,42.37
2022-10-30T08:45:02.724Z,40.63
2022-10-30T08:47:59.503Z,39.10
2022-10-30T08:50:29.457Z,38.65
2022-10-30T08:53:04.011Z,36.03
2022-10-30T08:55:33.297Z,35.30
2022-10-30T08:58:04.051Z,33.97
2022-10-30T09:00:32.667Z,33.25
2022-10-30T09:03:12.383Z,33.13
2022-10-30T09:05:59.737Z,31.40
2022-10-30T09:08:52.302Z,31.77
2022-10-30T09:11:39.088Z,31.00
2022-10-30T09:14:07.064Z,29.42
2022-10-30T09:16:35.956Z,29.80
2022-10-30T09:19:04.101Z,27.88
2022-10-30T09:21:32.205Z,28.70
2022-10-30T09:24:02.603Z,28.58
2022-10-30T09:26:37.003Z,26.48
2022-10-30T09:29:23.707Z,26.77
2022-10-30T09:32:08.800Z,24.40
2022-10-30T09:34:42.260Z,26.27
2022-10-30T09:37:15.681Z,24.92
2022-10-30T09:39:48.171Z,24.33
2022-10-30T09:42:37.953Z,23.88
2022-10-30T09:45:32.892Z,23.60
2022-10-30T09:48:20.497Z,23.73
2022-10-30T09:51:17.547Z,20.73
2022-10-30T09:53:54.497Z,21.27
2022-10-30T09:56:34.911Z,21.05
2022-10-30T09:59:13.647Z,20.95
2022-10-30T10:01:49.196Z,19.95
2022-10-30T10:04:27.258Z,20.95
2022-10-30T10:07:24.352Z,19.40
2022-10-30T10:10:25.168Z,20.20
2022-10-30T10:13:04.905Z,19.65
2022-10-30T10:15:40.784Z,18.73
2022-10-30T10:18:19.244Z,18.50
2022-10-30T10:20:51.501Z,19.75
2022-10-30T10:23:21.585Z,18.77
2022-10-30T10:25:54.086Z,18.13
2022-10-30T10:28:48.290Z,18.20
2022-10-30T10:31:28.542Z,19.70
2022-10-30T10:34:16.155Z,16.60
2022-10-30T10:36:51.534Z,16.42
2022-10-30T10:39:41.054Z,17.65
2022-10-30T10:42:20.599Z,16.50
2022-10-30T10:45:03.383Z,16.02
2022-10-30T10:47:47.441Z,15.25
2022-10-30T10:50:23.371Z,14.25
2022-10-30T10:52:57.822Z,13.73
2022-10-30T10:55:30.034Z,14.30
2022-10-30T10:58:07.166Z,14.65
2022-10-30T11:00:36.773Z,14.65
2022-10-30T11:03:10.601Z,13.15
2022-10-30T11:05:43.060Z,14.60
2022-10-30T11:08:16.400Z,14.68
2022-10-30T11:10:44.507Z,14.38
2022-10-30T11:13:14.812Z,12.88
2022-10-30T11:15:55.080Z,13.15
2022-10-30T11:18:23.251Z,12.63
2022-10-30T11:20:58.871Z,12.00
2022-10-30T11:23:39.953Z,12.65
2022-10-30T11:26:29.475Z,15.18
2022-10-30T11:29:00.167Z,13.32
2022-10-30T11:31:34.884Z,12.15
2022-10-30T11:34:26.879Z,13.20
2022-10-30T11:36:55.796Z,13.77
2022-10-30T11:39:25.618Z,11.25
2022-10-30T11:42:02.227Z,11.00
2022-10-30T11:44:34.859Z,11.50
2022-10-30T11:47:05.893Z,11.48
2022-10-30T11:49:41.504Z,12.85
2022-10-30T11:52:10.558Z,11.00
2022-10-30T11:54:44.815Z,9.70
2022-10-30T11:57:33.673Z,12.55
2022-10-30T12:00:05.299Z,11.95
2022-10-30T12:02:44.457Z,9.20
2022-10-30T12:05:35.565Z,11.02
2022-10-30T12:08:19.018Z,9.98
2022-10-30T12:10:55.058Z,9.95
2022-10-30T12:13:24.729Z,10.60
2022-10-30T12:16:06.992Z,13.55
2022-10-30T12:18:36.845Z,10.27
2022-10-30T12:21:05.595Z,9.48
2022-10-30T12:23:34.878Z,12.30
2022-10-30T12:26:10.615Z,9.90
2022-10-30T12:28:40.043Z,9.38
2022-10-30T12:31:13.575Z,8.95
2022-10-30T12:33:50.060Z,13.32
2022-10-30T12:36:21.787Z,8.98
2022-10-30T12:38:53.745Z,9.48
2022-10-30T12:41:26.454Z,9.65
2022-10-30T12:44:04.072Z,13.30
2022-10-30T12:46:37.395Z,9.52
2022-10-30T12:49:15.836Z,11.98
2022-10-30T12:51:50.090Z,11.27
2022-10-30T12:54:27.237Z,8.88
2022-10-30T12:57:01.710Z,12.85
2022-10-30T12:59:37.318Z,9.60
2022-10-30T13:02:21.981Z,8.82
2022-10-30T13:04:58.148Z,10.30
2022-10-30T13:07:32.724Z,10.10
2022-10-30T13:10:14.210Z,9.65
2022-10-30T13:12:46.267Z,9.98
2022-10-30T13:15:22.363Z,13.35
2022-10-30T13:17:51.770Z,11.20
2022-10-30T13:20:22.671Z,12.60
2022-10-30T13:22:55.704Z,11.90
2022-10-30T13:25:29.828Z,9.00
2022-10-30T13:28:05.342Z,9.50
2022-10-30T13:30:38.767Z,9.77
2022-10-30T13:33:15.391Z,9.20
2022-10-30T13:35:53.177Z,16.17
2022-10-30T13:38:38.269Z,12.18
2022-10-30T13:41:16.550Z,15.30
2022-10-30T13:43:54.078Z,11.20
2022-10-30T13:46:32.553Z,11.60
2022-10-30T13:49:15.647Z,9.68
2022-10-30T13:51:50.043Z,12.15
2022-10-30T13:54:21.846Z,11.40
2022-10-30T13:56:51.962Z,11.90
2022-10-30T13:59:45.337Z,8.32
2022-10-30T14:02:25.914Z,7.32
2022-10-30T14:05:01.743Z,11.95
2022-10-30T14:07:40.156Z,8.65
2022-10-30T14:10:12.714Z,11.57
2022-10-30T14:13:12.442Z,10.02
2022-10-30T14:15:44.192Z,7.70
2022-10-30T14:18:30.909Z,11.25
2022-10-30T14:21:00.253Z,9.40
2022-10-30T14:23:35.084Z,9.20
2022-10-30T14:26:23.019Z,9.73
2022-10-30T14:28:53.796Z,10.65
2022-10-30T14:31:35.201Z,7.90
2022-10-30T14:34:03.458Z,11.50
2022-10-30T14:36:50.080Z,12.00
2022-10-30T14:39:32.136Z,15.52
2022-10-30T14:42:15.698Z,9.15
2022-10-30T14:45:08.748Z,8.50
2022-10-30T14:47:58.552Z,9.50
2022-10-30T14:50:38.421Z,11.82
2022-10-30T14:53:35.369Z,12.00
2022-10-30T14:56:11.889Z,9.52
2022-10-30T14:58:40.275Z,12.65
2022-10-30T15:01:34.520Z,10.07
2022-10-30T15:04:17.746Z,12.27
2022-10-30T15:06:57.343Z,11.45
2022-10-30T15:09:40.344Z,9.57
2022-10-30T15:12:47.102Z,11.07
2022-10-30T15:15:18.598Z,9.70
2022-10-30T15:17:49.209Z,9.20
2022-10-30T15:20:20.093Z,13.68
2022-10-30T15:22:50.759Z,13.60
2022-10-30T15:25:21.586Z,8.93
2022-10-30T15:27:54.278Z,14.48
2022-10-30T15:30:25.424Z,12.18
2022-10-30T15:32:54.058Z,9.07
2022-10-30T15:35:23.665Z,11.05
2022-10-30T15:38:01.791Z,8.90
2022-10-30T15:40:30.844Z,18.95
2022-10-30T15:43:02.974Z,11.02
2022-10-30T15:45:35.523Z,11.25
2022-10-30T15:48:09.658Z,7.93
2022-10-30T15:50:47.115Z,12.10
2022-10-30T15:53:20.529Z,9.05
2022-10-30T15:55:50.066Z,10.15
2022-10-30T15:58:23.859Z,9.55
2022-10-30T16:01:00.628Z,10.10
2022-10-30T16:03:29.472Z,10.30
2022-10-30T16:06:08.352Z,12.15
2022-10-30T16:08:45.039Z,9.98
2022-10-30T16:11:13.412Z,10.38
2022-10-30T16:13:43.622Z,10.35
2022-10-30T16:16:17.980Z,8.73
2022-10-30T16:18:46.106Z,8.88
2022-10-30T16:21:18.690Z,14.15
2022-10-30T16:23:51.975Z,10.70
2022-10-30T16:26:29.930Z,11.63
2022-10-30T16:29:02.136Z,9.90
2022-10-30T16:31:35.373Z,10.82
2022-10-30T16:34:05.725Z,11.63
2022-10-30T16:36:34.528Z,11.02
2022-10-30T16:39:03.364Z,10.48
2022-10-30T16:41:32.786Z,11.70
2022-10-30T16:44:18.841Z,16.48
2022-10-30T16:46:57.780Z,12.32
2022-10-30T16:49:28.555Z,10.65
2022-10-30T16:52:01.696Z,12.65
2022-10-30T16:54:33.778Z,11.60
2022-10-30T16:57:04.017Z,13.57
2022-10-30T16:59:37.152Z,11.05
2022-10-30T17:02:16.579Z,12.23
2022-10-30T17:04:51.261Z,14.82
2022-10-30T17:07:25.238Z,11.65
2022-10-30T17:09:58.642Z,13.63
2022-10-30T17:12:28.959Z,13.93
2022-10-30T17:15:12.743Z,13.15
2022-10-30T17:17:42.025Z,11.77
2022-10-30T17:20:28.243Z,12.80
2022-10-30T17:23:07.740Z,11.70
2022-10-30T17:25:38.311Z,12.32
2022-10-30T17:28:07.165Z,12.55
2022-10-30T17:30:41.255Z,15.55
2022-10-30T17:33:28.220Z,13.88
2022-10-30T17:35:56.245Z,14.63
2022-10-30T17:38:24.261Z,13.82
2022-10-30T17:40:52.273Z,14.10
2022-10-30T17:43:20.339Z,17.05
2022-10-30T17:45:49.705Z,13.98
2022-10-30T17:48:19.299Z,13.63
2022-10-30T17:50:47.275Z,13.20
2022-10-30T17:53:18.486Z,13.50
2022-10-30T17:55:51.666Z,14.68
2022-10-30T17:58:22.105Z,13.18
2022-10-30T18:00:51.709Z,15.10
2022-10-30T18:03:19.704Z,16.98
2022-10-30T18:05:48.712Z,14.20
2022-10-30T18:08:16.684Z,14.60
2022-10-30T18:10:44.733Z,13.73
2022-10-30T18:13:13.709Z,15.40
2022-10-30T18:15:44.120Z,14.15
2022-10-30T18:18:13.602Z,14.80
2022-10-30T18:20:41.660Z,16.70
2022-10-30T18:23:46.777Z,16.73
2022-10-30T18:26:08.655Z,16.83
2022-10-30T18:28:36.624Z,16.50
2022-10-30T18:31:04.671Z,19.00
2022-10-30T18:33:34.021Z,18.30
2022-10-30T18:36:02.176Z,19.50
2022-10-30T18:38:30.222Z,24.27
2022-10-30T18:40:59.575Z,19.38
2022-10-30T18:43:28.899Z,19.45
2022-10-30T18:45:56.892Z,19.92
2022-10-30T18:48:24.873Z,19.90
2022-10-30T18:50:54.244Z,25.45
2022-10-30T18:53:22.172Z,20.33
2022-10-30T18:55:50.134Z,19.92
2022-10-30T18:58:18.082Z,20.00
2022-10-30T19:01:10.648Z,21.05
2022-10-30T19:03:34.018Z,20.63
2022-10-30T19:06:03.376Z,20.92
2022-10-30T19:08:31.376Z,21.83
2022-10-30T19:10:59.705Z,22.48
2022-10-30T19:13:27.753Z,23.50
2022-10-30T19:16:00.453Z,21.95
2022-10-30T19:18:31.253Z,24.30
2022-10-30T19:21:09.132Z,24.00
2022-10-30T19:23:42.396Z,25.20
2022-10-30T19:28:40.414Z,25.67
2022-10-30T19:31:09.011Z,25.83
2022-10-30T19:33:36.970Z,26.25
2022-10-30T19:36:06.175Z,25.90
2022-10-30T19:38:34.901Z,27.85
2022-10-30T19:41:05.183Z,27.98
2022-10-30T19:43:33.273Z,28.85
2022-10-30T19:46:01.590Z,28.48
2022-10-30T19:48:56.022Z,28.30
2022-10-30T19:51:17.617Z,30.23
2022-10-30T19:53:45.619Z,29.60
2022-10-30T19:56:16.451Z,29.98
2022-10-30T19:58:44.422Z,29.83
2022-10-30T20:01:14.107Z,29.67
2022-10-30T20:03:42.345Z,30.67
2022-10-30T20:06:12.000Z,30.23
2022-10-30T20:08:40.300Z,29.48
2022-10-30T20:11:08.857Z,28.97
2022-10-30T20:13:38.235Z,29.93
2022-10-30T20:16:07.190Z,30.60
2022-10-30T20:18:36.877Z,30.63
2022-10-30T20:21:08.419Z,29.92
2022-10-30T20:23:37.139Z,31.15
2022-10-30T20:26:08.358Z,31.40
2022-10-30T20:28:39.757Z,31.67
2022-10-30T20:31:09.059Z,31.85
2022-10-30T20:33:37.015Z,31.77
2022-10-30T20:36:05.752Z,31.85
2022-10-30T20:38:35.299Z,32.33
2022-10-30T20:41:04.695Z,30.73
2022-10-30T20:43:34.879Z,30.70
2022-10-30T20:46:05.930Z,31.00
2022-10-30T20:48:34.133Z,30.90
2022-10-30T20:51:02.995Z,28.65
2022-10-30T20:53:31.329Z,27.88
2022-10-30T20:55:59.323Z,27.17
2022-10-30T20:58:27.526Z,27.25
2022-10-30T21:00:56.421Z,28.23
2022-10-30T21:03:26.300Z,27.58
2022-10-30T21:05:57.328Z,28.52
2022-10-30T21:08:25.506Z,27.85
2022-10-30T21:10:53.522Z,28.30
2022-10-30T21:13:21.542Z,28.20
2022-10-30T21:15:51.487Z,27.77
2022-10-30T21:18:19.480Z,28.80
2022-10-30T21:20:48.975Z,29.52
2022-10-30T21:23:16.955Z,29.10
2022-10-30T21:25:44.958Z,31.05
2022-10-30T21:28:12.992Z,30.90
2022-10-30T21:30:41.097Z,31.83
2022-10-30T21:33:09.020Z,31.55
2022-10-30T21:35:37.044Z,30.40
2022-10-30T21:38:06.403Z,31.50
2022-10-30T21:40:34.379Z,31.90
2022-10-30T21:43:04.367Z,33.92
2022-10-30T21:45:33.030Z,33.17
2022-10-30T21:48:00.967Z,29.95
2022-10-30T21:50:28.941Z,31.97
2022-10-30T21:52:57.141Z,32.72
2022-10-30T21:55:26.585Z,31.80
2022-10-30T21:57:55.055Z,30.80
2022-10-30T22:00:23.148Z,31.43
2022-10-30T22:02:52.038Z,31.90
2022-10-30T22:05:19.948Z,32.97
2022-10-30T22:07:47.933Z,34.10
2022-10-30T22:10:15.988Z,34.00
2022-10-30T22:12:45.329Z,34.60
2022-10-30T22:15:13.320Z,35.40
2022-10-30T22:17:41.297Z,35.87
2022-10-30T22:20:11.220Z,37.53
2022-10-30T22:22:39.191Z,37.43
2022-10-30T22:25:07.502Z,38.77
2022-10-30T22:27:35.543Z,40.67
2022-10-30T22:30:05.440Z,41.10
2022-10-30T22:32:33.483Z,41.60
2022-10-30T22:35:02.240Z,42.03
2022-10-30T22:37:30.232Z,42.20
2022-10-30T22:39:58.162Z,40.77
2022-10-30T22:42:26.206Z,41.80
2022-10-30T22:44:54.768Z,42.57
2022-10-30T22:47:24.090Z,43.53
2022-10-30T22:49:52.063Z,42.20
2022-10-30T22:52:19.998Z,43.00
2022-10-30T22:54:47.977Z,44.00
2022-10-30T22:57:15.961Z,42.40
2022-10-30T22:59:43.904Z,43.03
2022-10-30T23:02:11.887Z,40.90
2022-10-30T23:04:41.304Z,41.90
2022-10-30T23:07:09.278Z,41.47
2022-10-30T23:09:37.282Z,41.33
2022-10-30T23:12:05.914Z,43.10
2022-10-30T23:14:33.965Z,43.00
2022-10-30T23:17:01.982Z,43.80
2022-10-30T23:19:30.412Z,42.33
2022-10-30T23:22:00.183Z,44.90
2022-10-30T23:24:28.389Z,44.87
2022-10-30T23:26:56.347Z,43.83
2022-10-30T23:29:24.324Z,44.00
2022-10-30T23:31:52.236Z,43.77
2022-10-30T23:34:20.183Z,44.67
2022-10-30T23:36:48.093Z,44.53
2022-10-30T23:39:19.029Z,45.90
2022-10-30T23:41:47.210Z,48.53
2022-10-30T23:44:16.938Z,47.83
2022-10-30T23:46:44.968Z,48.20
2022-10-30T23:49:12.935Z,50.10
2022-10-30T23:51:40.892Z,51.03
2022-10-30T23:54:08.952Z,51.90
2022-10-30T23:56:38.220Z,53.47
2022-10-30T23:59:06.180Z,54.07
